Castell, Texas
Current Conditions -  °F | °C
As of 8:10 AM on Thursday 30 Oct 2014 (Local Time) from KAQO Reporting Station
Overcast Overcast  
Wind Chill: 61°   Ceiling: 1000
Heat Index: 61°   Visibility: 9mi
Dew Point: 57°   Wind: 0mph
Humidity: 88%   Direction: NA
Pressure: 30.18"   Gusts: NA
Location:  30.69°N, 98.94°W
Report Text: KAQO 301310Z AUTO 00000KT 9SM OVC010 16/14 A3018 RMK AO2
Loading
Personal Weather Stations






























Interactive Weather Map
Tropical Storm Tracking
New forecast layout! Learn more

10-Day Weather Forecast

Advertisements
Track Severe Weather on mobile